Etusivu
METAR-TAF:

METAR-TAF

Lentoasemat :

Aurillac, Ranska

Leveyspiiri: 44-53N, Pituuspiiri: 002-25E, korkeus merenpinnasta: 639 m

Tämänhetkinen sää

Tämä raportti tehtiin 35 minuuttia sitten, kello 20.30 UTC
Tuuli 6 kn pohjoisesta/koillisesta
Lämpötila 9°C
Kosteus 53%
Ilmanpaine 1029 hPa
Näkyvyys 10 km tai enemmän
ei pilviä alle 1500 m:ssä eikä cumulonimbus-pilviä

METAR: LFLW 222030Z AUTO 02006KT CAVOK 09/00 Q1029

Aika: 22:05 (21:05 UTC)

Sääennuste

Tämä raportti tehtiin 7 tuntia ja 5 minuuttia sitten, kello 14.00 UTC
Ennuste voimassa 22. päivästä klo 15 UTC - 22. päivään klo 24 UTC
Tuuli 3 kn eri suunnista
Näkyvyys 10 km tai enemmän
ei pilviä alle 1500 m:ssä eikä cumulonimbus-pilviä

TAF: LFLW 221400Z 2215/2224 VRB03KT CAVOK

Säähavainnot ja -ennusteet yli 4000 lentoasemalta (METAR- ja TAF-raportit).

Käytössä olevat sääasemat on merkitty karttaan keltaisilla ja punaisilla pisteillä.

Aseta hiiri pisteen päälle nähdäksesi sääaseman nimen.

Klikkaa sitten nähdäksesi säähavainnot ja -ennusteet.

Kartan vaihtaminen: klikkaa mustalla rastilla varustettuja vihreitä pisteitä, niin voit zoomata sisään; viivalla varustettua vihreää pistettä, niin voit zoomata ulos tai vihreitä nuolia, niin pääset viereisille kartoille.


METAR-TAF: